createdAt,value
2022-12-03T00:00:13.796Z,3.92
2022-12-03T00:02:41.024Z,4.25
2022-12-03T00:05:08.297Z,3.89
2022-12-03T00:07:34.915Z,4.04
2022-12-03T00:10:01.474Z,4.11
2022-12-03T00:12:27.963Z,4.06
2022-12-03T00:14:54.915Z,4.08
2022-12-03T00:17:21.668Z,4.09
2022-12-03T00:19:48.191Z,3.71
2022-12-03T00:22:17.194Z,3.84
2022-12-03T00:24:43.740Z,4.03
2022-12-03T00:27:10.211Z,3.59
2022-12-03T00:29:36.762Z,3.67
2022-12-03T00:32:03.187Z,3.52
2022-12-03T00:34:29.685Z,2.40
2022-12-03T00:36:56.320Z,3.20
2022-12-03T00:39:23.125Z,3.90
2022-12-03T00:41:49.561Z,3.62
2022-12-03T00:44:16.095Z,3.79
2022-12-03T00:46:42.698Z,3.67
2022-12-03T00:49:09.437Z,3.80
2022-12-03T00:51:35.997Z,3.41
2022-12-03T00:54:02.663Z,3.88
2022-12-03T00:56:29.289Z,3.71
2022-12-03T00:58:55.794Z,3.74
2022-12-03T01:01:22.384Z,3.70
2022-12-03T01:03:49.153Z,3.50
2022-12-03T01:06:15.661Z,3.32
2022-12-03T01:08:42.136Z,3.74
2022-12-03T01:11:28.785Z,3.79
2022-12-03T01:13:55.260Z,3.47
2022-12-03T01:16:21.922Z,3.48
2022-12-03T01:18:48.510Z,3.48
2022-12-03T01:21:15.047Z,3.03
2022-12-03T01:23:41.546Z,3.31
2022-12-03T01:26:08.038Z,3.09
2022-12-03T01:28:34.583Z,3.17
2022-12-03T01:31:19.786Z,3.51
2022-12-03T01:33:46.350Z,3.47
2022-12-03T01:36:13.302Z,3.37
2022-12-03T01:38:39.894Z,3.40
2022-12-03T01:41:11.462Z,3.28
2022-12-03T01:43:38.683Z,2.89
2022-12-03T01:46:05.434Z,3.39
2022-12-03T01:48:35.738Z,3.03
2022-12-03T01:51:02.439Z,3.50
2022-12-03T01:53:29.093Z,3.52
2022-12-03T01:55:55.787Z,2.41
2022-12-03T01:58:26.503Z,3.08
2022-12-03T02:00:53.038Z,3.03
2022-12-03T02:03:24.528Z,3.50
2022-12-03T02:05:53.113Z,3.24
2022-12-03T02:08:31.329Z,3.38
2022-12-03T02:11:03.333Z,3.35
2022-12-03T02:13:30.490Z,2.90
2022-12-03T02:15:58.028Z,2.68
2022-12-03T02:18:24.780Z,3.12
2022-12-03T02:21:06.322Z,3.22
2022-12-03T02:23:52.266Z,3.27
2022-12-03T02:26:18.969Z,2.96
2022-12-03T02:28:45.432Z,3.18
2022-12-03T02:31:12.090Z,3.25
2022-12-03T02:33:38.891Z,3.27
2022-12-03T02:36:06.050Z,3.28
2022-12-03T02:38:35.081Z,3.11
2022-12-03T02:41:07.344Z,2.72
2022-12-03T02:43:33.876Z,2.71
2022-12-03T02:46:02.559Z,3.06
2022-12-03T02:48:34.762Z,3.04
2022-12-03T02:51:05.347Z,3.01
2022-12-03T02:53:43.339Z,2.59
2022-12-03T02:56:13.730Z,2.96
2022-12-03T02:58:41.939Z,2.64
2022-12-03T03:01:09.572Z,2.20
2022-12-03T03:03:37.712Z,2.57
2022-12-03T03:06:06.327Z,2.68
2022-12-03T03:08:33.640Z,2.99
2022-12-03T03:11:02.942Z,2.48
2022-12-03T03:13:31.392Z,3.16
2022-12-03T03:15:58.612Z,2.73
2022-12-03T03:18:25.526Z,2.38
2022-12-03T03:20:52.082Z,3.11
2022-12-03T03:23:20.878Z,3.10
2022-12-03T03:25:52.050Z,2.64
2022-12-03T03:28:19.009Z,2.79
2022-12-03T03:30:46.647Z,2.75
2022-12-03T03:33:15.434Z,2.75
2022-12-03T03:35:44.226Z,2.87
2022-12-03T03:38:11.094Z,2.79
2022-12-03T03:40:39.975Z,2.99
2022-12-03T03:43:07.305Z,2.48
2022-12-03T03:45:34.087Z,2.65
2022-12-03T03:48:01.260Z,2.57
2022-12-03T03:50:30.902Z,2.89
2022-12-03T03:52:58.639Z,2.31
2022-12-03T03:55:25.384Z,2.30
2022-12-03T03:57:51.907Z,2.60
2022-12-03T04:00:19.117Z,1.83
2022-12-03T04:02:45.899Z,2.28
2022-12-03T04:05:21.000Z,2.76
2022-12-03T04:07:47.626Z,2.58
2022-12-03T04:10:34.157Z,2.65
2022-12-03T04:13:01.096Z,2.73
2022-12-03T04:15:28.044Z,2.90
2022-12-03T04:18:15.547Z,2.22
2022-12-03T04:20:42.187Z,1.17
2022-12-03T04:23:09.223Z,2.40
2022-12-03T04:25:54.323Z,1.50
2022-12-03T04:28:39.350Z,2.62
2022-12-03T04:31:25.972Z,2.65
2022-12-03T04:34:11.551Z,2.87
2022-12-03T04:36:38.536Z,2.66
2022-12-03T04:39:05.088Z,2.25
2022-12-03T04:41:32.664Z,2.07
2022-12-03T04:44:17.461Z,2.09
2022-12-03T04:46:43.929Z,2.52
2022-12-03T04:49:10.633Z,2.53
2022-12-03T04:51:37.207Z,2.08
2022-12-03T04:54:03.946Z,2.03
2022-12-03T04:56:30.608Z,2.64
2022-12-03T04:58:57.181Z,2.39
2022-12-03T05:01:24.104Z,2.39
2022-12-03T05:03:50.733Z,2.76
2022-12-03T05:06:17.238Z,2.68
2022-12-03T05:08:43.785Z,2.69
2022-12-03T05:11:10.337Z,2.34
2022-12-03T05:13:36.998Z,1.81
2022-12-03T05:16:03.649Z,2.63
2022-12-03T05:18:30.077Z,2.43
2022-12-03T05:20:56.591Z,2.40
2022-12-03T05:23:23.137Z,2.56
2022-12-03T05:25:49.717Z,2.57
2022-12-03T05:28:17.572Z,2.57
2022-12-03T05:30:44.095Z,2.54
2022-12-03T05:33:11.178Z,2.65
2022-12-03T05:35:37.685Z,2.04
2022-12-03T05:38:04.267Z,1.73
2022-12-03T05:40:30.752Z,2.63
2022-12-03T05:42:57.340Z,2.54
2022-12-03T05:45:26.905Z,2.15
2022-12-03T05:47:54.384Z,2.52
2022-12-03T05:50:22.986Z,2.38
2022-12-03T05:52:50.020Z,2.57
2022-12-03T05:55:16.678Z,2.11
2022-12-03T05:57:43.315Z,2.53
2022-12-03T06:00:22.312Z,2.17
2022-12-03T06:02:49.144Z,2.62
2022-12-03T06:05:17.148Z,2.37
2022-12-03T06:07:43.714Z,1.76
2022-12-03T06:10:12.494Z,2.51
2022-12-03T06:12:39.609Z,2.13
2022-12-03T06:15:07.433Z,2.34
2022-12-03T06:17:33.916Z,2.06
2022-12-03T06:20:00.589Z,2.20
2022-12-03T06:22:27.387Z,1.94
2022-12-03T06:24:54.583Z,1.95
2022-12-03T06:27:21.386Z,2.27
2022-12-03T06:29:47.839Z,2.09
2022-12-03T06:32:14.359Z,1.97
2022-12-03T06:34:40.946Z,1.33
2022-12-03T06:37:07.630Z,2.01
2022-12-03T06:39:34.209Z,2.36
2022-12-03T06:42:00.730Z,2.28
2022-12-03T06:44:27.303Z,2.39
2022-12-03T06:46:53.923Z,2.32
2022-12-03T06:49:21.123Z,2.17
2022-12-03T06:51:47.611Z,1.98
2022-12-03T06:54:14.168Z,1.50
2022-12-03T06:56:45.197Z,2.13
2022-12-03T06:59:12.358Z,1.94
2022-12-03T07:01:38.948Z,1.71
2022-12-03T07:04:05.692Z,2.27
2022-12-03T07:06:32.222Z,2.12
2022-12-03T07:08:58.770Z,2.15
2022-12-03T07:11:40.160Z,2.38
2022-12-03T07:14:08.378Z,2.20
2022-12-03T07:16:36.245Z,2.28
2022-12-03T07:19:04.055Z,2.29
2022-12-03T07:21:30.623Z,2.46
2022-12-03T07:23:57.125Z,1.62
2022-12-03T07:26:23.690Z,1.88
2022-12-03T07:28:50.187Z,2.21
2022-12-03T07:31:17.043Z,2.21
2022-12-03T07:33:43.848Z,2.12
2022-12-03T07:36:10.614Z,2.04
2022-12-03T07:38:37.081Z,2.35
2022-12-03T07:41:03.855Z,2.50
2022-12-03T07:43:30.348Z,1.93
2022-12-03T07:45:56.813Z,2.30
2022-12-03T07:48:23.410Z,2.59
2022-12-03T07:50:50.013Z,2.64
2022-12-03T07:53:16.526Z,2.13
2022-12-03T07:55:43.101Z,2.31
2022-12-03T07:58:09.683Z,2.46
2022-12-03T08:00:36.169Z,2.50
2022-12-03T08:03:02.745Z,2.12
2022-12-03T08:05:29.908Z,2.32
2022-12-03T08:07:56.653Z,2.54
2022-12-03T08:10:25.206Z,2.37
2022-12-03T08:12:52.060Z,2.39
2022-12-03T08:15:26.673Z,2.60
2022-12-03T08:18:03.960Z,2.78
2022-12-03T08:20:34.469Z,2.86
2022-12-03T08:23:06.756Z,3.06
2022-12-03T08:25:33.753Z,2.69
2022-12-03T08:28:07.742Z,2.83
2022-12-03T08:30:34.275Z,3.37
2022-12-03T08:33:00.962Z,3.23
2022-12-03T08:35:30.974Z,3.44
2022-12-03T08:38:02.155Z,3.53
2022-12-03T08:40:37.491Z,3.80
2022-12-03T08:43:13.562Z,4.08
2022-12-03T08:45:42.002Z,3.84
2022-12-03T08:48:22.273Z,4.44
2022-12-03T08:50:48.867Z,4.16
2022-12-03T08:53:37.490Z,3.24
2022-12-03T08:56:25.910Z,3.85
2022-12-03T08:59:02.004Z,4.21
2022-12-03T09:01:44.533Z,4.41
2022-12-03T09:04:20.432Z,4.43
2022-12-03T09:06:47.081Z,2.17
2022-12-03T09:09:13.585Z,4.41
2022-12-03T09:11:40.372Z,4.48
2022-12-03T09:14:07.100Z,4.28
2022-12-03T09:16:33.665Z,4.68
2022-12-03T09:19:02.926Z,4.88
2022-12-03T09:21:29.577Z,4.67
2022-12-03T09:23:56.074Z,5.31
2022-12-03T09:26:22.587Z,5.52
2022-12-03T09:28:49.186Z,5.64
2022-12-03T09:31:16.884Z,5.77
2022-12-03T09:33:45.704Z,5.52
2022-12-03T09:36:12.875Z,5.49
2022-12-03T09:38:46.006Z,4.88
2022-12-03T09:41:14.111Z,5.18
2022-12-03T09:44:03.468Z,4.93
2022-12-03T09:46:29.851Z,4.86
2022-12-03T09:48:56.850Z,4.58
2022-12-03T09:51:29.355Z,4.83
2022-12-03T09:53:55.948Z,4.71
2022-12-03T09:56:23.451Z,4.70
2022-12-03T09:58:52.701Z,4.55
2022-12-03T10:01:19.238Z,4.22
2022-12-03T10:03:51.148Z,4.92
2022-12-03T10:06:22.852Z,5.11
2022-12-03T10:08:53.534Z,5.30
2022-12-03T10:11:23.034Z,5.23
2022-12-03T10:13:50.193Z,5.02
2022-12-03T10:16:21.020Z,5.04
2022-12-03T10:18:51.593Z,5.08
2022-12-03T10:21:23.898Z,4.44
2022-12-03T10:24:29.169Z,4.67
2022-12-03T10:27:01.719Z,4.55
2022-12-03T10:29:34.297Z,4.89
2022-12-03T10:32:12.878Z,4.71
2022-12-03T10:34:42.631Z,4.91
2022-12-03T10:37:15.592Z,5.04
2022-12-03T10:40:00.825Z,4.94
2022-12-03T10:42:33.574Z,5.07
2022-12-03T10:45:20.420Z,5.00
2022-12-03T10:48:15.983Z,4.73
2022-12-03T10:50:50.436Z,4.72
2022-12-03T10:53:18.379Z,5.05
2022-12-03T10:55:46.442Z,4.90
2022-12-03T10:58:34.850Z,5.12
2022-12-03T11:01:03.941Z,5.04
2022-12-03T11:03:35.167Z,5.00
2022-12-03T11:06:02.605Z,4.78
2022-12-03T11:08:32.714Z,4.77
2022-12-03T11:11:18.005Z,5.04
2022-12-03T11:13:50.579Z,5.10
2022-12-03T11:16:55.343Z,4.44
2022-12-03T11:19:37.150Z,4.68
2022-12-03T11:22:03.655Z,4.72
2022-12-03T11:24:31.341Z,4.76
2022-12-03T11:26:58.267Z,4.46
2022-12-03T11:29:48.028Z,4.59
2022-12-03T11:32:39.716Z,4.71
2022-12-03T11:35:25.685Z,4.68
2022-12-03T11:37:52.795Z,4.83
2022-12-03T11:40:19.281Z,4.86
2022-12-03T11:42:47.753Z,4.88
2022-12-03T11:45:28.656Z,4.71
2022-12-03T11:47:59.417Z,4.91
2022-12-03T11:50:51.846Z,4.69
2022-12-03T11:53:27.096Z,4.96
2022-12-03T11:56:08.544Z,4.56
2022-12-03T11:58:38.417Z,4.95
2022-12-03T12:01:07.618Z,5.12
2022-12-03T12:03:52.404Z,5.14
2022-12-03T12:06:21.045Z,5.00
2022-12-03T12:08:58.814Z,4.97
2022-12-03T12:11:33.823Z,4.98
2022-12-03T12:14:08.209Z,4.87
2022-12-03T12:16:39.670Z,4.92
2022-12-03T12:19:39.962Z,4.80
2022-12-03T12:22:20.172Z,4.80
2022-12-03T12:24:51.944Z,4.70
2022-12-03T12:27:39.326Z,4.73
2022-12-03T12:30:10.457Z,4.61
2022-12-03T12:32:50.484Z,4.19
2022-12-03T12:35:22.336Z,4.51
2022-12-03T12:37:59.943Z,4.73
2022-12-03T12:40:29.986Z,4.57
2022-12-03T12:42:59.070Z,4.71
2022-12-03T12:45:30.997Z,4.35
2022-12-03T12:48:16.116Z,4.34
2022-12-03T12:50:46.117Z,4.57
2022-12-03T12:53:24.230Z,4.60
2022-12-03T12:55:59.493Z,4.53
2022-12-03T12:58:28.634Z,4.69
2022-12-03T13:00:59.138Z,4.57
2022-12-03T13:03:32.701Z,4.68
2022-12-03T13:05:59.506Z,4.04
2022-12-03T13:08:37.689Z,4.50
2022-12-03T13:11:06.459Z,4.36
2022-12-03T13:13:43.528Z,4.41
2022-12-03T13:16:26.662Z,3.97
2022-12-03T13:18:58.311Z,4.55
2022-12-03T13:21:38.884Z,4.56
2022-12-03T13:24:32.382Z,4.53
2022-12-03T13:27:13.853Z,4.56
2022-12-03T13:29:40.612Z,4.60
2022-12-03T13:32:20.176Z,4.58
2022-12-03T13:34:47.589Z,4.59
2022-12-03T13:37:19.422Z,4.65
2022-12-03T13:39:48.943Z,4.57
2022-12-03T13:42:38.902Z,4.37
2022-12-03T13:45:14.344Z,4.37
2022-12-03T13:47:45.870Z,4.22
2022-12-03T13:50:35.982Z,4.40
2022-12-03T13:53:25.156Z,4.13
2022-12-03T13:56:25.787Z,3.98
2022-12-03T13:58:52.267Z,4.05
2022-12-03T14:01:18.808Z,3.97
2022-12-03T14:03:45.502Z,4.23
2022-12-03T14:06:11.939Z,4.18
2022-12-03T14:08:38.545Z,4.14
2022-12-03T14:11:05.165Z,4.19
2022-12-03T14:13:31.871Z,4.17
2022-12-03T14:15:58.555Z,3.87
2022-12-03T14:18:25.037Z,4.03
2022-12-03T14:20:51.532Z,3.72
2022-12-03T14:23:18.011Z,3.42
2022-12-03T14:25:44.564Z,3.97
2022-12-03T14:28:11.268Z,3.97
2022-12-03T14:30:37.952Z,3.76
2022-12-03T14:33:04.690Z,3.64
2022-12-03T14:35:31.238Z,3.91
2022-12-03T14:37:57.773Z,3.89
2022-12-03T14:40:24.442Z,3.43
2022-12-03T14:42:53.502Z,3.58
2022-12-03T14:45:20.927Z,3.69
2022-12-03T14:47:47.436Z,3.51
2022-12-03T14:50:14.573Z,3.54
2022-12-03T14:52:41.326Z,3.78
2022-12-03T14:55:08.253Z,3.38
2022-12-03T14:57:34.986Z,3.58
2022-12-03T15:00:01.783Z,3.34
2022-12-03T15:02:28.938Z,3.64
2022-12-03T15:04:55.508Z,3.27
2022-12-03T15:07:21.985Z,3.52
2022-12-03T15:09:48.462Z,3.57
2022-12-03T15:12:15.101Z,3.58
2022-12-03T15:14:42.465Z,3.06
2022-12-03T15:17:09.053Z,3.56
2022-12-03T15:19:36.605Z,3.42
2022-12-03T15:22:03.637Z,3.54
2022-12-03T15:24:30.164Z,3.34
2022-12-03T15:26:56.988Z,3.39
2022-12-03T15:29:23.630Z,3.14
2022-12-03T15:31:50.235Z,3.41
2022-12-03T15:34:22.182Z,3.51
2022-12-03T15:36:49.528Z,3.48
2022-12-03T15:39:15.964Z,3.06
2022-12-03T15:41:42.421Z,3.34
2022-12-03T15:44:08.854Z,3.43
2022-12-03T15:46:35.485Z,3.23
2022-12-03T15:49:02.038Z,3.22
2022-12-03T15:51:28.642Z,3.51
2022-12-03T15:53:55.169Z,3.50
2022-12-03T15:56:21.720Z,3.15
2022-12-03T15:58:48.174Z,2.76
2022-12-03T16:01:15.080Z,3.35
2022-12-03T16:03:41.892Z,3.53
2022-12-03T16:06:09.028Z,3.30
2022-12-03T16:08:37.816Z,3.14
2022-12-03T16:11:04.415Z,3.10
2022-12-03T16:13:30.957Z,2.96
2022-12-03T16:15:57.748Z,2.94
2022-12-03T16:18:24.236Z,2.96
2022-12-03T16:20:50.779Z,2.97
2022-12-03T16:23:17.283Z,3.05
2022-12-03T16:25:43.823Z,3.00
2022-12-03T16:28:10.438Z,2.96
2022-12-03T16:30:37.173Z,2.67
2022-12-03T16:33:03.683Z,2.91
2022-12-03T16:35:31.065Z,2.91
2022-12-03T16:37:57.503Z,2.96
2022-12-03T16:40:23.978Z,2.62
2022-12-03T16:42:50.511Z,2.93
2022-12-03T16:45:34.048Z,2.95
2022-12-03T16:48:01.828Z,2.90
2022-12-03T16:50:30.293Z,2.95
2022-12-03T16:52:57.590Z,2.98
2022-12-03T16:55:24.248Z,2.93
2022-12-03T16:57:50.754Z,2.92
2022-12-03T17:00:17.551Z,2.93
2022-12-03T17:02:44.389Z,2.96
2022-12-03T17:05:10.987Z,2.87
2022-12-03T17:07:37.562Z,2.88
2022-12-03T17:10:05.235Z,2.68
2022-12-03T17:12:54.174Z,2.52
2022-12-03T17:15:18.306Z,2.84
2022-12-03T17:17:44.755Z,2.96
2022-12-03T17:20:12.625Z,2.97
2022-12-03T17:22:39.204Z,2.94
2022-12-03T17:25:05.947Z,2.65
2022-12-03T17:27:32.516Z,2.90
2022-12-03T17:29:59.049Z,2.90
2022-12-03T17:32:27.145Z,2.89
2022-12-03T17:34:53.838Z,2.96
2022-12-03T17:37:20.392Z,2.83
2022-12-03T17:39:46.842Z,2.39
2022-12-03T17:42:13.371Z,2.89
2022-12-03T17:44:39.823Z,2.91
2022-12-03T17:47:06.523Z,3.07
2022-12-03T17:49:33.200Z,3.06
2022-12-03T17:51:59.853Z,3.14
2022-12-03T17:54:43.153Z,2.57
2022-12-03T17:57:12.904Z,3.06
2022-12-03T17:59:39.574Z,2.94
2022-12-03T18:02:06.551Z,3.00
2022-12-03T18:04:33.155Z,2.73
2022-12-03T18:07:02.373Z,2.88
2022-12-03T18:09:29.314Z,2.91
2022-12-03T18:11:56.361Z,3.04
2022-12-03T18:14:22.917Z,3.02
2022-12-03T18:16:49.344Z,3.03
2022-12-03T18:19:15.852Z,3.12
2022-12-03T18:21:42.494Z,3.17
2022-12-03T18:24:09.502Z,2.60
2022-12-03T18:26:36.012Z,3.05
2022-12-03T18:29:02.593Z,2.56
2022-12-03T18:31:29.169Z,2.94
2022-12-03T18:33:55.683Z,3.05
2022-12-03T18:36:25.861Z,3.02
2022-12-03T18:38:55.276Z,2.94
2022-12-03T18:41:24.043Z,2.48
2022-12-03T18:43:51.375Z,3.02
2022-12-03T18:46:45.141Z,2.97
2022-12-03T18:49:06.137Z,2.54
2022-12-03T18:51:32.713Z,3.15
2022-12-03T18:53:59.448Z,2.70
2022-12-03T18:56:26.078Z,2.90
2022-12-03T18:58:52.575Z,2.48
2022-12-03T19:01:23.230Z,3.00
2022-12-03T19:03:50.199Z,2.59
2022-12-03T19:06:19.905Z,2.86
2022-12-03T19:08:49.341Z,2.33
2022-12-03T19:11:15.880Z,2.75
2022-12-03T19:13:42.596Z,2.76
2022-12-03T19:16:10.667Z,2.98
2022-12-03T19:18:37.283Z,2.91
2022-12-03T19:21:22.349Z,2.75
2022-12-03T19:24:22.144Z,2.33
2022-12-03T19:26:35.542Z,2.50
2022-12-03T19:29:02.035Z,2.87
2022-12-03T19:31:30.777Z,2.83
2022-12-03T19:33:57.320Z,2.84
2022-12-03T19:36:25.268Z,2.81
2022-12-03T19:38:56.864Z,2.81
2022-12-03T19:41:30.534Z,2.72
2022-12-03T19:43:58.198Z,2.44
2022-12-03T19:46:28.908Z,2.72
2022-12-03T19:48:55.414Z,2.69
2022-12-03T19:51:36.993Z,2.67
2022-12-03T19:54:08.110Z,2.69
2022-12-03T19:56:37.594Z,2.74
2022-12-03T19:59:05.266Z,2.29
2022-12-03T20:01:33.832Z,2.54
2022-12-03T20:04:01.932Z,2.55
2022-12-03T20:06:39.249Z,2.48
2022-12-03T20:09:10.678Z,2.61
2022-12-03T20:11:38.220Z,2.55
2022-12-03T20:14:07.416Z,2.59
2022-12-03T20:16:36.256Z,2.30
2022-12-03T20:19:06.345Z,2.23
2022-12-03T20:21:37.143Z,2.51
2022-12-03T20:24:05.894Z,2.58
2022-12-03T20:26:35.468Z,2.32
2022-12-03T20:29:02.005Z,2.34
2022-12-03T20:31:31.120Z,2.29
2022-12-03T20:34:00.457Z,2.33
2022-12-03T20:36:29.812Z,2.19
2022-12-03T20:38:58.208Z,2.28
2022-12-03T20:41:25.295Z,2.29
2022-12-03T20:43:53.679Z,1.51
2022-12-03T20:46:24.549Z,1.82
2022-12-03T20:48:52.584Z,2.37
2022-12-03T20:51:21.086Z,2.13
2022-12-03T20:53:48.042Z,2.29
2022-12-03T20:56:23.672Z,2.11
2022-12-03T20:58:50.478Z,2.23
2022-12-03T21:01:23.308Z,2.09
2022-12-03T21:03:50.848Z,1.84
2022-12-03T21:06:18.017Z,2.10
2022-12-03T21:08:45.429Z,2.09
2022-12-03T21:11:14.538Z,2.11
2022-12-03T21:13:42.635Z,2.14
2022-12-03T21:16:14.882Z,2.20
2022-12-03T21:18:41.681Z,1.80
2022-12-03T21:21:10.216Z,1.98
2022-12-03T21:23:36.824Z,2.01
2022-12-03T21:26:04.684Z,2.09
2022-12-03T21:28:31.455Z,1.91
2022-12-03T21:31:07.053Z,2.19
2022-12-03T21:33:34.531Z,2.11
2022-12-03T21:36:02.266Z,1.99
2022-12-03T21:38:29.687Z,1.99
2022-12-03T21:40:57.094Z,1.74
2022-12-03T21:43:24.687Z,1.20
2022-12-03T21:45:51.779Z,2.17
2022-12-03T21:48:19.421Z,1.60
2022-12-03T21:50:46.874Z,2.10
2022-12-03T21:53:14.618Z,1.53
2022-12-03T21:55:41.618Z,1.62
2022-12-03T21:58:08.737Z,2.02
2022-12-03T22:00:35.966Z,1.98
2022-12-03T22:03:02.519Z,1.62
2022-12-03T22:05:29.164Z,1.99
2022-12-03T22:07:58.293Z,1.73
2022-12-03T22:10:24.867Z,1.98
2022-12-03T22:12:51.443Z,2.01
2022-12-03T22:15:19.448Z,1.88
2022-12-03T22:17:46.455Z,1.95
2022-12-03T22:20:13.373Z,1.84
2022-12-03T22:22:39.868Z,1.50
2022-12-03T22:25:10.097Z,1.59
2022-12-03T22:27:36.740Z,1.92
2022-12-03T22:30:04.794Z,1.86
2022-12-03T22:32:31.354Z,1.87
2022-12-03T22:34:57.862Z,1.90
2022-12-03T22:37:24.431Z,1.65
2022-12-03T22:39:50.949Z,1.69
2022-12-03T22:42:17.594Z,1.89
2022-12-03T22:44:44.069Z,1.38
2022-12-03T22:47:10.607Z,0.96
2022-12-03T22:49:37.090Z,1.69
2022-12-03T22:52:04.520Z,1.73
2022-12-03T22:54:30.982Z,1.59
2022-12-03T22:56:57.497Z,1.93
2022-12-03T22:59:24.124Z,1.85
2022-12-03T23:01:50.671Z,1.55
2022-12-03T23:04:17.464Z,1.87
2022-12-03T23:06:44.387Z,1.94
2022-12-03T23:09:10.913Z,1.81
2022-12-03T23:11:38.342Z,1.89
2022-12-03T23:14:05.008Z,1.88
2022-12-03T23:16:33.878Z,1.55
2022-12-03T23:19:01.683Z,1.71
2022-12-03T23:21:30.889Z,1.76
2022-12-03T23:24:02.371Z,1.75
2022-12-03T23:26:29.779Z,1.49
2022-12-03T23:28:56.747Z,1.67
2022-12-03T23:31:29.644Z,2.04
2022-12-03T23:33:57.555Z,1.77
2022-12-03T23:36:26.192Z,1.62
2022-12-03T23:38:54.226Z,1.79
2022-12-03T23:41:22.545Z,1.73
2022-12-03T23:43:53.956Z,1.91
2022-12-03T23:46:23.892Z,1.85
2022-12-03T23:48:53.818Z,1.82
2022-12-03T23:51:23.844Z,1.88
2022-12-03T23:53:52.519Z,2.00
2022-12-03T23:56:23.428Z,1.88
2022-12-03T23:58:50.524Z,1.80
